Time;durP1;ratioP1;P1;durP2;ratioP2;P2;SDS_P1;SDS_P2;PMS_P1;PMS_P2;Temp;Humidity;BMP_temperature;BMP_pressure;BME280_temperature;BME280_humidity;BME280_pressure;Samples;Min_cycle;Max_cycle;Signal;HPM_P1;HPM_P2
2024/02/28 00:00:04;;;;;;;0.28;0.10;;;;;;;10.10;100.00;100560.31;5048126;28;20588;-67
2024/02/28 00:02:30;;;;;;;0.55;0.25;;;;;;;10.10;100.00;100549.09;5047645;28;20490;-67
2024/02/28 00:04:58;;;;;;;2.55;0.30;;;;;;;10.05;100.00;100552.09;5052115;28;20040;-66
2024/02/28 00:07:23;;;;;;;3.22;0.20;;;;;;;10.04;100.00;100558.25;5048130;28;20056;-67
2024/02/28 00:09:49;;;;;;;0.30;0.10;;;;;;;10.03;100.00;100561.81;5045857;28;20119;-67
2024/02/28 00:12:15;;;;;;;1.20;0.30;;;;;;;10.03;100.00;100564.44;5045471;28;20056;-67
2024/02/28 00:14:40;;;;;;;1.20;0.22;;;;;;;10.03;100.00;100566.22;5050435;28;20028;-67
2024/02/28 00:17:06;;;;;;;1.05;0.30;;;;;;;10.01;100.00;100561.16;5054457;28;20037;-66
2024/02/28 00:19:32;;;;;;;0.70;0.20;;;;;;;9.93;100.00;100558.41;5050413;28;20036;-67
2024/02/28 00:21:59;;;;;;;0.80;0.20;;;;;;;9.83;100.00;100557.63;5045870;28;20070;-67
2024/02/28 00:24:25;;;;;;;0.52;0.20;;;;;;;9.83;100.00;100544.59;5044718;28;20056;-67
2024/02/28 00:26:50;;;;;;;1.30;0.20;;;;;;;9.88;100.00;100545.00;5045688;28;20127;-67
2024/02/28 00:29:16;;;;;;;0.77;0.10;;;;;;;9.88;100.00;100545.00;5050644;28;20072;-67
2024/02/28 00:31:41;;;;;;;1.33;0.30;;;;;;;9.89;100.00;100538.84;5054498;28;20047;-67
2024/02/28 00:34:08;;;;;;;1.20;0.20;;;;;;;9.90;100.00;100537.88;5044748;28;20028;-67
2024/02/28 00:36:34;;;;;;;2.10;0.28;;;;;;;9.93;100.00;100530.59;5045391;28;20109;-67
2024/02/28 00:38:59;;;;;;;3.28;0.20;;;;;;;9.92;100.00;100533.38;5052694;28;20032;-67
2024/02/28 00:41:25;;;;;;;0.57;0.20;;;;;;;9.89;100.00;100528.44;5066039;28;20029;-67
2024/02/28 00:43:50;;;;;;;2.15;0.30;;;;;;;9.83;100.00;100531.59;5047095;28;20108;-67
2024/02/28 00:46:15;;;;;;;0.82;0.20;;;;;;;9.72;100.00;100534.31;5047849;28;20167;-66
2024/02/28 00:48:41;;;;;;;0.95;0.20;;;;;;;9.63;100.00;100542.00;5055373;28;20036;-67
2024/02/28 00:51:09;;;;;;;2.40;0.20;;;;;;;9.64;100.00;100538.44;5061636;28;20107;-66
2024/02/28 00:53:35;;;;;;;0.75;0.20;;;;;;;9.74;100.00;100535.00;5045913;28;20470;-67
2024/02/28 00:56:00;;;;;;;2.80;0.20;;;;;;;9.79;100.00;100530.22;5049095;28;20039;-67
2024/02/28 00:58:27;;;;;;;3.35;0.20;;;;;;;9.84;100.00;100538.44;5048437;28;20049;-66
2024/02/28 01:00:53;;;;;;;1.63;0.20;;;;;;;9.84;100.00;100543.66;5050923;28;20087;-67
2024/02/28 01:03:19;;;;;;;0.88;0.30;;;;;;;9.89;100.00;100539.66;5044174;28;20040;-67
2024/02/28 01:05:44;;;;;;;1.27;0.20;;;;;;;9.84;100.00;100543.66;5050436;28;20436;-67
2024/02/28 01:08:09;;;;;;;3.97;0.52;;;;;;;9.83;100.00;100552.41;5029721;28;20049;-67
2024/02/28 01:10:36;;;;;;;0.63;0.28;;;;;;;9.87;100.00;100543.38;5058324;28;20081;-66
2024/02/28 01:13:02;;;;;;;0.80;0.20;;;;;;;10.09;100.00;100548.25;5069080;28;20063;-67
2024/02/28 01:15:28;;;;;;;2.20;0.40;;;;;;;10.27;100.00;100546.63;5071796;28;20080;-68
2024/02/28 01:17:53;;;;;;;2.90;0.30;;;;;;;10.44;100.00;100537.25;5069875;28;20028;-68
2024/02/28 01:20:18;;;;;;;1.85;0.20;;;;;;;10.41;100.00;100531.50;5071805;28;20072;-67
2024/02/28 01:22:44;;;;;;;1.45;0.25;;;;;;;10.51;100.00;100538.31;5070323;28;20082;-67
2024/02/28 01:25:09;;;;;;;6.80;0.35;;;;;;;10.52;100.00;100533.94;5068995;28;20048;-67
2024/02/28 01:27:35;;;;;;;2.05;0.25;;;;;;;10.49;100.00;100534.22;5069750;28;20032;-67
2024/02/28 01:30:01;;;;;;;10.77;1.23;;;;;;;10.61;100.00;100543.50;5080746;28;20177;-68
2024/02/28 01:32:29;;;;;;;2.95;0.40;;;;;;;10.63;100.00;100545.00;5069759;28;20504;-67
2024/02/28 01:34:54;;;;;;;0.93;0.30;;;;;;;10.62;100.00;100545.97;5069599;28;20039;-67
2024/02/28 01:37:20;;;;;;;2.25;0.43;;;;;;;10.67;100.00;100542.09;5069205;28;20032;-67
2024/02/28 01:39:45;;;;;;;1.08;0.35;;;;;;;10.62;100.00;100539.94;5055171;28;20082;-67
2024/02/28 01:42:11;;;;;;;2.42;0.40;;;;;;;10.63;100.00;100546.78;5043431;28;20477;-67
2024/02/28 01:44:44;;;;;;;1.23;0.30;;;;;;;10.66;100.00;100541.28;5044622;28;20065;-67
2024/02/28 01:47:10;;;;;;;1.55;0.30;;;;;;;10.66;100.00;100545.69;5049133;28;20375;-66
2024/02/28 01:49:35;;;;;;;2.03;0.30;;;;;;;10.61;100.00;100544.31;5053580;28;20046;-67
2024/02/28 01:52:02;;;;;;;1.88;0.30;;;;;;;10.49;100.00;100549.84;5042982;28;20025;-67
2024/02/28 01:54:29;;;;;;;4.35;0.45;;;;;;;10.32;100.00;100543.59;5048507;28;20024;-67
2024/02/28 01:56:55;;;;;;;1.48;0.20;;;;;;;10.38;100.00;100542.22;5044050;28;20052;-67
2024/02/28 01:59:24;;;;;;;1.58;0.30;;;;;;;10.34;100.00;100543.47;5046591;28;20031;-67
2024/02/28 02:01:50;;;;;;;0.73;0.30;;;;;;;10.30;100.00;100529.91;5046209;28;20106;-67
2024/02/28 02:04:16;;;;;;;1.48;0.40;;;;;;;10.36;100.00;100544.16;5049206;28;20025;-67
2024/02/28 02:06:44;;;;;;;4.03;0.30;;;;;;;10.34;100.00;100540.84;5045771;28;20024;-67
2024/02/28 02:09:11;;;;;;;2.88;0.30;;;;;;;10.30;100.00;100535.09;5043160;28;20076;-67
2024/02/28 02:11:37;;;;;;;2.05;0.30;;;;;;;10.27;100.00;100538.81;5046051;28;20040;-67
2024/02/28 02:14:03;;;;;;;2.05;0.38;;;;;;;10.29;100.00;100542.09;5050473;28;20036;-66
2024/02/28 02:16:29;;;;;;;1.52;0.20;;;;;;;10.34;100.00;100533.88;5048171;28;20045;-67
2024/02/28 02:18:55;;;;;;;3.25;0.28;;;;;;;10.30;100.00;100533.31;5055727;28;20033;-67
2024/02/28 02:21:24;;;;;;;0.68;0.20;;;;;;;10.20;100.00;100540.34;5047323;28;20045;-66
2024/02/28 02:23:50;;;;;;;5.20;0.55;;;;;;;10.17;100.00;100535.38;5048108;28;20038;-67
2024/02/28 02:26:15;;;;;;;2.47;0.32;;;;;;;10.12;100.00;100541.97;5048772;28;20044;-67
2024/02/28 02:28:41;;;;;;;1.55;0.30;;;;;;;10.10;100.00;100544.69;5052451;28;20123;-66
2024/02/28 02:31:06;;;;;;;4.20;0.47;;;;;;;10.18;100.00;100544.81;5052461;28;20106;-67
2024/02/28 02:33:31;;;;;;;6.57;0.22;;;;;;;10.19;100.00;100548.25;5051757;28;20036;-67
2024/02/28 02:35:57;;;;;;;5.18;0.47;;;;;;;10.16;100.00;100544.13;5048762;28;20044;-67
2024/02/28 02:38:23;;;;;;;0.85;0.30;;;;;;;10.20;100.00;100545.53;5046478;28;20634;-67
2024/02/28 02:40:52;;;;;;;1.48;0.40;;;;;;;10.23;100.00;100545.25;5062637;28;21834;-67
2024/02/28 02:43:18;;;;;;;1.55;0.57;;;;;;;10.32;100.00;100548.00;5046812;28;20036;-67
2024/02/28 02:45:44;;;;;;;1.38;0.60;;;;;;;10.38;100.00;100547.44;5046966;28;21061;-67
2024/02/28 02:48:09;;;;;;;1.52;0.50;;;;;;;10.39;100.00;100543.88;5056705;28;20090;-67
2024/02/28 02:50:35;;;;;;;1.60;0.38;;;;;;;10.42;100.00;100539.16;5056855;28;20052;-67
2024/02/28 02:53:01;;;;;;;2.17;0.30;;;;;;;10.51;100.00;100542.72;5047094;28;20127;-67
2024/02/28 02:55:26;;;;;;;1.00;0.32;;;;;;;10.56;100.00;100543.09;5052981;28;20157;-67
2024/02/28 02:57:52;;;;;;;1.10;0.40;;;;;;;10.56;100.00;100535.28;5051639;28;20033;-67
2024/02/28 03:00:17;;;;;;;2.35;0.88;;;;;;;10.54;100.00;100539.81;5045623;28;20478;-67
2024/02/28 03:02:43;;;;;;;4.82;0.50;;;;;;;10.52;100.00;100537.34;5046842;28;20428;-67
2024/02/28 03:05:08;;;;;;;1.13;0.45;;;;;;;10.56;100.00;100540.50;5052787;28;20066;-67
2024/02/28 03:07:34;;;;;;;3.03;0.50;;;;;;;10.67;100.00;100544.72;5046828;28;20039;-68
2024/02/28 03:10:00;;;;;;;3.10;0.55;;;;;;;10.68;100.00;100554.19;5047079;28;20036;-67
2024/02/28 03:12:25;;;;;;;1.48;0.45;;;;;;;10.59;100.00;100554.06;5063823;28;20084;-67
2024/02/28 03:14:51;;;;;;;2.70;0.28;;;;;;;10.47;100.00;100556.97;5071908;28;20464;-67
2024/02/28 03:17:16;;;;;;;2.15;0.40;;;;;;;10.36;100.00;100549.34;5071769;28;20032;-67
2024/02/28 03:19:42;;;;;;;1.50;0.47;;;;;;;10.25;100.00;100543.34;5072430;28;20099;-67
2024/02/28 03:22:07;;;;;;;4.43;0.40;;;;;;;10.22;100.00;100542.78;5071379;28;20056;-67
2024/02/28 03:24:35;;;;;;;0.85;0.32;;;;;;;10.20;100.00;100553.34;5076765;28;20020;-67
2024/02/28 03:27:03;;;;;;;1.02;0.38;;;;;;;10.14;100.00;100556.47;5071330;28;20085;-67
2024/02/28 03:29:29;;;;;;;3.17;0.47;;;;;;;10.08;100.00;100551.00;5069807;28;20388;-67
2024/02/28 03:31:54;;;;;;;2.25;0.50;;;;;;;10.03;100.00;100543.59;5069536;28;20079;-67
2024/02/28 03:34:20;;;;;;;0.98;0.40;;;;;;;9.99;100.00;100545.66;5078929;28;20028;-68
2024/02/28 03:36:46;;;;;;;1.75;0.52;;;;;;;10.03;100.00;100543.59;5074931;28;20048;-67
2024/02/28 03:39:11;;;;;;;1.05;0.40;;;;;;;10.05;100.00;100544.28;5069609;28;20032;-67
2024/02/28 03:41:37;;;;;;;1.63;0.40;;;;;;;10.05;100.00;100539.09;5050420;28;20387;-67
2024/02/28 03:44:02;;;;;;;3.15;0.50;;;;;;;10.09;100.00;100539.63;5045972;28;20165;-67
2024/02/28 03:46:28;;;;;;;1.27;0.70;;;;;;;10.13;100.00;100538.38;5047934;28;20040;-67
2024/02/28 03:48:53;;;;;;;5.53;0.40;;;;;;;10.07;100.00;100544.97;5052521;28;20536;-67
2024/02/28 03:51:19;;;;;;;2.58;0.57;;;;;;;9.96;100.00;100543.34;5049306;28;20028;-67
2024/02/28 03:53:44;;;;;;;1.50;0.57;;;;;;;9.85;100.00;100540.91;5064325;28;20146;-67
2024/02/28 03:56:11;;;;;;;1.67;0.50;;;;;;;9.79;100.00;100553.63;5066038;28;20040;-67
2024/02/28 03:58:36;;;;;;;2.13;0.40;;;;;;;9.75;100.00;100554.88;5055034;28;20032;-66
2024/02/28 04:01:02;;;;;;;2.55;0.43;;;;;;;9.71;100.00;100549.13;5046127;28;20028;-66
2024/02/28 04:03:27;;;;;;;2.08;0.43;;;;;;;9.68;100.00;100549.38;5046236;28;20367;-67
2024/02/28 04:05:52;;;;;;;1.50;0.40;;;;;;;9.72;100.00;100560.34;5052900;28;20117;-67
2024/02/28 04:08:18;;;;;;;2.08;0.43;;;;;;;9.74;100.00;100556.66;5048317;28;20090;-66
2024/02/28 04:10:43;;;;;;;3.38;0.30;;;;;;;9.70;100.00;100559.66;5046129;28;20056;-66
2024/02/28 04:13:09;;;;;;;1.50;0.38;;;;;;;9.63;100.00;100565.41;5054556;28;20458;-67
2024/02/28 04:15:34;;;;;;;2.92;0.32;;;;;;;9.57;100.00;100563.34;5046292;28;20043;-66
2024/02/28 04:18:00;;;;;;;1.77;0.70;;;;;;;9.54;100.00;100563.59;5051268;28;20028;-67
2024/02/28 04:20:26;;;;;;;2.08;0.50;;;;;;;9.52;100.00;100565.53;5047878;28;20604;-66
2024/02/28 04:22:52;;;;;;;0.90;0.30;;;;;;;9.49;100.00;100560.59;5051371;28;20536;-67
2024/02/28 04:25:17;;;;;;;0.93;0.50;;;;;;;9.49;100.00;100558.00;5045370;28;20048;-67
2024/02/28 04:27:43;;;;;;;4.13;1.17;;;;;;;9.50;100.00;100566.63;5044702;28;20251;-67
2024/02/28 04:30:09;;;;;;;2.30;0.50;;;;;;;9.51;100.00;100569.09;5056478;28;20819;-67
2024/02/28 04:32:36;;;;;;;2.35;0.70;;;;;;;9.50;100.00;100567.44;5046219;28;20039;-67
2024/02/28 04:35:02;;;;;;;1.88;0.90;;;;;;;9.49;100.00;100560.59;5049030;28;20051;-67
2024/02/28 04:37:28;;;;;;;2.63;0.30;;;;;;;9.54;100.00;100563.59;5047299;28;20063;-67
2024/02/28 04:39:53;;;;;;;1.65;0.40;;;;;;;9.68;100.00;100567.59;5048455;28;20028;-67
2024/02/28 04:42:19;;;;;;;2.17;0.60;;;;;;;9.76;100.00;100572.13;5051304;28;20036;-67
2024/02/28 04:44:44;;;;;;;4.75;0.40;;;;;;;9.73;100.00;100573.22;5044800;28;20043;-66
2024/02/28 04:47:10;;;;;;;2.08;0.60;;;;;;;9.67;100.00;100578.97;5044403;28;20032;-67
2024/02/28 04:49:38;;;;;;;3.00;0.80;;;;;;;9.63;100.00;100575.00;5060156;28;20107;-68
2024/02/28 04:52:05;;;;;;;3.08;0.50;;;;;;;9.60;100.00;100576.06;5052408;28;20113;-67
2024/02/28 04:54:31;;;;;;;5.15;0.57;;;;;;;9.56;100.00;100572.09;5047516;28;20068;-67
2024/02/28 04:56:56;;;;;;;3.75;0.70;;;;;;;9.56;100.00;100576.47;5049956;28;20136;-67
2024/02/28 04:59:21;;;;;;;3.60;0.50;;;;;;;9.53;100.00;100582.78;5050061;28;20047;-67
2024/02/28 05:01:48;;;;;;;2.28;0.60;;;;;;;9.50;100.00;100583.03;5045929;28;20028;-67
2024/02/28 05:04:13;;;;;;;2.45;0.70;;;;;;;9.51;100.00;100589.06;5043598;28;20066;-67
2024/02/28 05:06:39;;;;;;;4.65;0.60;;;;;;;9.49;100.00;100588.38;5049253;28;20116;-67
2024/02/28 05:09:04;;;;;;;2.72;0.90;;;;;;;9.48;100.00;100576.31;5045582;28;20431;-67
2024/02/28 05:11:29;;;;;;;3.05;0.63;;;;;;;9.49;100.00;100584.00;5047681;28;20063;-67
2024/02/28 05:13:55;;;;;;;4.60;0.85;;;;;;;9.49;100.00;100585.78;5056527;28;20033;-67
2024/02/28 05:16:20;;;;;;;4.30;0.93;;;;;;;9.50;100.00;100587.41;5068670;28;20024;-67
2024/02/28 05:18:46;;;;;;;2.80;1.10;;;;;;;9.50;100.00;100596.03;5067494;28;20035;-67
2024/02/28 05:21:13;;;;;;;6.13;0.70;;;;;;;9.46;100.00;100597.28;5066476;28;20489;-67
2024/02/28 05:23:39;;;;;;;4.32;0.70;;;;;;;9.45;100.00;100590.41;5069029;28;20171;-67
2024/02/28 05:26:06;;;;;;;1.20;0.43;;;;;;;9.46;100.00;100592.06;5067294;28;20064;-67
2024/02/28 05:28:33;;;;;;;2.17;0.55;;;;;;;9.47;100.00;100591.09;5061338;28;20082;-67
2024/02/28 05:30:59;;;;;;;1.65;0.70;;;;;;;9.46;100.00;100597.28;5052172;28;20032;-67
2024/02/28 05:33:25;;;;;;;2.85;0.88;;;;;;;9.48;100.00;100602.34;5041890;28;20046;-67
2024/02/28 05:35:51;;;;;;;1.70;0.40;;;;;;;9.59;100.00;100599.63;5042031;28;20036;-67
2024/02/28 05:38:16;;;;;;;2.15;0.50;;;;;;;9.79;100.00;100597.88;5050056;28;20028;-66
2024/02/28 05:40:42;;;;;;;5.07;0.80;;;;;;;9.83;100.00;100596.66;5056475;28;20032;-66
2024/02/28 05:43:08;;;;;;;6.35;1.83;;;;;;;9.84;100.00;100603.50;5041314;28;20024;-67
2024/02/28 05:45:33;;;;;;;6.00;1.67;;;;;;;9.77;100.00;100605.81;5065825;28;20032;-66
2024/02/28 05:47:58;;;;;;;3.58;1.23;;;;;;;9.72;100.00;100604.56;5072706;28;20064;-67
2024/02/28 05:50:24;;;;;;;7.38;2.30;;;;;;;9.69;100.00;100615.25;5073089;28;20452;-67
2024/02/28 05:52:50;;;;;;;5.00;1.63;;;;;;;9.63;100.00;100622.63;5069271;28;20043;-67
2024/02/28 05:55:16;;;;;;;3.97;1.35;;;;;;;9.58;100.00;100627.41;5067439;28;20029;-67
2024/02/28 05:57:41;;;;;;;3.92;1.30;;;;;;;9.56;100.00;100631.09;5069556;28;20059;-67
2024/02/28 06:00:09;;;;;;;4.20;1.88;;;;;;;9.53;100.00;100633.97;5069358;28;20071;-67
2024/02/28 06:02:38;;;;;;;4.28;1.75;;;;;;;9.52;100.00;100642.72;5063325;28;20473;-67
2024/02/28 06:05:04;;;;;;;3.17;0.90;;;;;;;9.51;100.00;100647.09;5069123;28;20044;-66
2024/02/28 06:07:30;;;;;;;3.60;0.77;;;;;;;9.51;100.00;100651.50;5069283;28;20025;-68
2024/02/28 06:09:56;;;;;;;3.33;1.35;;;;;;;9.50;100.00;100663.66;5069619;28;20032;-67
2024/02/28 06:12:21;;;;;;;4.15;1.08;;;;;;;9.51;100.00;100662.72;5068119;28;20035;-67
2024/02/28 06:14:47;;;;;;;4.10;1.10;;;;;;;9.50;100.00;100666.28;5069313;28;20043;-67
2024/02/28 06:17:13;;;;;;;2.30;0.65;;;;;;;9.85;100.00;100672.81;5067658;28;20129;-68
2024/02/28 06:19:38;;;;;;;6.00;0.50;;;;;;;10.07;100.00;100666.50;5069404;28;20036;-67
2024/02/28 06:22:04;;;;;;;3.40;0.75;;;;;;;10.16;100.00;100673.50;5080301;28;20036;-67
2024/02/28 06:24:29;;;;;;;6.47;1.10;;;;;;;10.21;100.00;100677.38;5072763;28;20024;-67
2024/02/28 06:26:55;;;;;;;2.85;0.88;;;;;;;10.18;100.00;100676.78;5070268;28;20039;-67
2024/02/28 06:29:22;;;;;;;5.28;0.75;;;;;;;10.16;100.00;100684.75;5068578;28;20367;-67
2024/02/28 06:31:55;;;;;;;2.72;0.80;;;;;;;10.17;100.00;100688.16;5069038;28;20025;-66
2024/02/28 06:34:22;;;;;;;5.90;0.70;;;;;;;10.16;100.00;100689.13;5068270;28;20054;-66
2024/02/28 06:36:48;;;;;;;1.63;0.70;;;;;;;10.11;100.00;100689.53;5070535;28;20418;-68
2024/02/28 06:39:13;;;;;;;6.32;0.98;;;;;;;10.06;100.00;100689.09;5068359;28;20040;-67
2024/02/28 06:41:39;;;;;;;7.35;0.73;;;;;;;10.15;100.00;100682.28;5068821;28;20477;-67
2024/02/28 06:44:04;;;;;;;3.78;0.40;;;;;;;10.26;100.00;100689.97;5068788;28;20040;-68
2024/02/28 06:46:30;;;;;;;2.97;0.65;;;;;;;10.35;100.00;100690.94;5068437;28;20021;-66
2024/02/28 06:48:55;;;;;;;2.67;0.70;;;;;;;10.34;100.00;100697.94;5068028;28;20037;-67
2024/02/28 06:51:20;;;;;;;2.72;1.10;;;;;;;10.34;100.00;100703.16;5068365;28;20059;-67
2024/02/28 06:53:46;;;;;;;7.10;0.85;;;;;;;10.33;100.00;100711.09;5069383;28;20052;-68
2024/02/28 06:56:11;;;;;;;4.13;0.70;;;;;;;10.33;100.00;100711.09;5068114;28;20037;-67
2024/02/28 06:58:37;;;;;;;5.53;0.60;;;;;;;10.35;100.00;100709.19;5069111;28;20021;-67
2024/02/28 07:01:03;;;;;;;2.70;0.82;;;;;;;10.39;100.00;100700.13;5068134;28;20295;-67
2024/02/28 07:03:29;;;;;;;8.55;0.90;;;;;;;10.38;100.00;100703.69;5068546;28;20543;-67
2024/02/28 07:05:54;;;;;;;4.63;0.88;;;;;;;10.36;100.00;100709.03;5067986;28;20036;-67
2024/02/28 07:08:20;;;;;;;3.15;1.15;;;;;;;10.37;100.00;100713.28;5070521;28;20029;-67
2024/02/28 07:10:49;;;;;;;2.17;0.73;;;;;;;10.39;100.00;100710.56;5070792;28;20033;-67
2024/02/28 07:13:14;;;;;;;1.92;0.73;;;;;;;10.43;100.00;100715.31;5072203;28;20040;-68
2024/02/28 07:15:41;;;;;;;4.60;0.88;;;;;;;10.45;100.00;100721.22;5072899;28;20039;-67
2024/02/28 07:18:07;;;;;;;2.75;0.50;;;;;;;10.49;100.00;100721.78;5071684;28;20465;-67
2024/02/28 07:20:32;;;;;;;4.25;0.57;;;;;;;10.51;100.00;100717.25;5072644;28;20036;-67
2024/02/28 07:22:57;;;;;;;1.90;0.40;;;;;;;10.51;100.00;100728.50;5071562;28;20044;-67
2024/02/28 07:25:23;;;;;;;7.60;0.80;;;;;;;10.53;100.00;100723.13;5071884;28;20025;-67
2024/02/28 07:27:48;;;;;;;1.52;0.40;;;;;;;10.51;100.00;100728.50;5072580;28;20036;-67
2024/02/28 07:30:14;;;;;;;4.75;0.70;;;;;;;10.57;100.00;100730.53;5071053;28;20052;-67
2024/02/28 07:32:39;;;;;;;4.18;0.90;;;;;;;10.63;100.00;100731.78;5078289;28;20024;-67
2024/02/28 07:35:05;;;;;;;3.78;0.40;;;;;;;10.69;100.00;100728.63;5072548;28;20531;-67
2024/02/28 07:37:31;;;;;;;5.13;0.52;;;;;;;10.70;100.00;100732.88;5072370;28;20078;-67
2024/02/28 07:39:57;;;;;;;1.70;0.70;;;;;;;10.76;100.00;100728.91;5072402;28;20200;-67
2024/02/28 07:42:22;;;;;;;3.63;0.40;;;;;;;10.87;100.00;100731.34;5071510;28;20028;-67
2024/02/28 07:44:49;;;;;;;4.45;0.57;;;;;;;10.88;100.00;100732.97;5072175;28;20050;-67
2024/02/28 07:47:14;;;;;;;2.85;0.65;;;;;;;10.93;100.00;100730.78;5069752;28;20036;-68
2024/02/28 07:49:40;;;;;;;1.80;0.50;;;;;;;11.01;100.00;100727.47;5072110;28;20159;-67
2024/02/28 07:52:05;;;;;;;5.13;1.17;;;;;;;11.08;100.00;100723.34;5071747;28;20033;-67
2024/02/28 07:54:31;;;;;;;4.68;0.65;;;;;;;11.07;100.00;100726.91;5071777;28;20036;-67
2024/02/28 07:56:56;;;;;;;2.90;0.47;;;;;;;11.13;100.00;100721.13;5070163;28;20056;-67
2024/02/28 07:59:22;;;;;;;6.28;0.50;;;;;;;11.19;100.00;100728.38;5064120;28;20026;-67
2024/02/28 08:01:47;;;;;;;6.82;1.13;;;;;;;11.30;100.00;100728.22;5068366;28;20030;-67
2024/02/28 08:04:13;;;;;;;3.85;0.82;;;;;;;11.43;100.00;100728.69;5063030;28;20111;-67
2024/02/28 08:06:40;;;;;;;1.85;0.68;;;;;;;11.55;100.00;100735.38;5064740;28;20085;-67
2024/02/28 08:09:05;;;;;;;1.73;0.60;;;;;;;11.63;100.00;100727.66;5059775;28;20025;-67
2024/02/28 08:11:31;;;;;;;2.38;0.70;;;;;;;11.69;100.00;100734.09;5070288;28;20120;-67
2024/02/28 08:13:56;;;;;;;2.33;0.68;;;;;;;11.82;100.00;100731.13;5071492;28;20028;-67
2024/02/28 08:16:22;;;;;;;3.92;0.77;;;;;;;11.94;100.00;100737.81;5071203;28;20108;-67
2024/02/28 08:18:47;;;;;;;4.85;0.70;;;;;;;12.06;100.00;100733.22;5071883;28;20070;-67
2024/02/28 08:21:13;;;;;;;4.63;1.05;;;;;;;12.05;100.00;100739.41;5072211;28;20098;-67
2024/02/28 08:23:38;;;;;;;3.78;0.95;;;;;;;12.10;100.00;100738.00;5070365;28;20024;-67
2024/02/28 08:26:04;;;;;;;4.40;0.68;;;;;;;12.22;100.00;100741.22;5068493;28;20559;-68
2024/02/28 08:28:29;;;;;;;3.33;0.80;;;;;;;12.25;100.00;100736.53;5071200;28;20047;-67
2024/02/28 08:30:54;;;;;;;2.00;0.80;;;;;;;12.26;100.00;100746.00;5071213;28;20085;-68
2024/02/28 08:33:20;;;;;;;11.13;0.88;;;;;;;12.30;100.00;100742.09;5069642;28;20040;-67
2024/02/28 08:35:45;;;;;;;1.98;0.47;;;;;;;12.34;100.00;100739.19;5072003;28;20056;-67
2024/02/28 08:38:11;;;;;;;6.72;0.73;;;;;;;12.36;100.00;100748.50;5068087;28;20111;-67
2024/02/28 08:40:36;;;;;;;7.40;0.65;;;;;;;12.39;100.00;100750.00;5070752;28;20044;-67
2024/02/28 08:43:02;;;;;;;4.05;0.40;;;;;;;12.45;100.00;100760.69;5069734;28;20028;-67
2024/02/28 08:45:27;;;;;;;3.17;0.57;;;;;;;12.47;100.00;100758.75;5066386;28;20041;-72
2024/02/28 08:47:53;;;;;;;2.22;0.57;;;;;;;12.51;100.00;100751.44;5070939;28;20064;-72
2024/02/28 08:50:18;;;;;;;7.47;1.08;;;;;;;12.59;100.00;100759.34;5070445;28;20535;-71
2024/02/28 08:52:44;;;;;;;2.55;1.02;;;;;;;12.69;100.00;100757.47;5070592;28;20393;-72
2024/02/28 08:55:09;;;;;;;3.92;1.00;;;;;;;12.73;100.00;100765.84;5066412;28;20037;-71
2024/02/28 08:57:35;;;;;;;5.82;1.48;;;;;;;12.83;100.00;100764.75;5067534;28;20048;-72
2024/02/28 09:00:00;;;;;;;4.30;1.73;;;;;;;12.80;100.00;100770.28;5069833;28;20504;-73
2024/02/28 09:02:26;;;;;;;4.05;1.10;;;;;;;12.81;100.00;100774.56;5069690;28;20032;-68
2024/02/28 09:04:52;;;;;;;2.65;1.05;;;;;;;12.77;100.00;100775.81;5070202;28;20028;-67
2024/02/28 09:07:21;;;;;;;4.50;0.57;;;;;;;12.80;100.00;100783.38;5070177;28;23422;-68
2024/02/28 09:09:47;;;;;;;1.60;0.47;;;;;;;12.79;99.79;100786.94;5069948;28;20032;-68
2024/02/28 09:12:13;;;;;;;4.53;0.40;;;;;;;12.83;99.48;100788.28;5069088;28;20040;-67
2024/02/28 09:14:39;;;;;;;3.33;0.57;;;;;;;12.89;96.42;100792.91;5069686;28;20382;-68
2024/02/28 09:17:04;;;;;;;8.45;0.57;;;;;;;12.94;96.59;100790.69;5063064;28;20036;-68
2024/02/28 09:19:34;;;;;;;2.72;0.50;;;;;;;12.99;98.60;100792.03;5061571;28;20279;-68
2024/02/28 09:21:59;;;;;;;4.30;1.10;;;;;;;13.06;97.24;100793.06;5064762;28;20060;-67
2024/02/28 09:24:26;;;;;;;2.75;0.80;;;;;;;13.18;95.18;100802.34;5066559;28;20060;-67
2024/02/28 09:26:51;;;;;;;6.00;0.85;;;;;;;13.27;97.71;100804.00;5061713;28;20044;-68
2024/02/28 09:29:17;;;;;;;6.22;1.00;;;;;;;13.28;97.52;100810.88;5067655;28;20032;-68
2024/02/28 09:31:42;;;;;;;3.65;1.48;;;;;;;13.26;94.71;100810.22;5067815;28;20358;-68
2024/02/28 09:34:09;;;;;;;5.03;0.70;;;;;;;13.29;95.82;100812.53;5068091;28;20036;-67
2024/02/28 09:36:45;;;;;;;4.07;1.00;;;;;;;13.27;93.83;100819.72;5067495;28;20439;-68
2024/02/28 09:39:15;;;;;;;3.25;0.73;;;;;;;13.38;96.00;100805.56;5068015;28;20043;-68
2024/02/28 09:41:46;;;;;;;7.25;1.25;;;;;;;13.42;90.26;100810.31;5068016;28;20036;-67
2024/02/28 09:44:16;;;;;;;3.00;0.90;;;;;;;13.51;94.01;100813.81;5065182;28;20024;-67
2024/02/28 09:46:42;;;;;;;2.70;0.80;;;;;;;13.55;91.29;100815.97;5062770;28;20033;-68
2024/02/28 09:49:09;;;;;;;4.75;0.80;;;;;;;13.55;91.11;100823.00;5067502;28;20033;-68
2024/02/28 09:51:35;;;;;;;3.42;0.80;;;;;;;13.63;90.45;100817.81;5067224;28;20428;-67
2024/02/28 09:54:04;;;;;;;2.97;0.77;;;;;;;13.68;90.13;100817.34;5068186;28;20077;-68
2024/02/28 09:56:30;;;;;;;3.17;1.02;;;;;;;13.79;89.61;100817.06;5064251;28;20044;-68
2024/02/28 09:58:56;;;;;;;2.95;0.88;;;;;;;13.82;89.72;100814.13;5066096;28;20631;-68
2024/02/28 10:01:24;;;;;;;1.50;0.30;;;;;;;13.90;89.35;100814.16;5067693;28;20056;-67
2024/02/28 10:03:54;;;;;;;10.23;1.10;;;;;;;13.87;89.97;100819.72;5064478;28;20031;-68
2024/02/28 10:06:20;;;;;;;0.80;0.40;;;;;;;13.82;86.74;100819.38;5060232;28;20428;-68
2024/02/28 10:08:47;;;;;;;1.08;0.40;;;;;;;13.76;88.43;100823.44;5065373;28;20371;-67
2024/02/28 10:11:22;;;;;;;8.02;0.85;;;;;;;13.79;86.57;100827.53;5062846;28;20034;-67
2024/02/28 10:13:49;;;;;;;4.50;0.52;;;;;;;13.83;85.96;100828.88;5068111;28;20056;-67
2024/02/28 10:16:15;;;;;;;3.65;0.73;;;;;;;13.90;85.76;100822.84;5059564;28;20127;-67
2024/02/28 10:18:42;;;;;;;4.07;0.40;;;;;;;14.04;90.30;100826.69;5068199;28;20354;-68
2024/02/28 10:21:08;;;;;;;5.10;0.82;;;;;;;14.13;89.32;100828.34;5060023;28;20032;-67
2024/02/28 10:23:33;;;;;;;4.30;0.82;;;;;;;14.14;87.29;100832.63;5064205;28;20519;-67
2024/02/28 10:26:01;;;;;;;2.20;0.70;;;;;;;14.11;86.76;100832.09;5063921;28;20500;-67
2024/02/28 10:28:27;;;;;;;6.40;0.60;;;;;;;14.10;86.79;100830.47;5068998;28;20056;-67
2024/02/28 10:30:54;;;;;;;4.22;0.75;;;;;;;14.11;86.68;100821.63;5067760;28;20028;-67
2024/02/28 10:33:19;;;;;;;4.57;0.60;;;;;;;14.08;85.00;100822.75;5067717;28;20161;-67
2024/02/28 10:35:45;;;;;;;3.97;0.68;;;;;;;14.20;86.83;100831.94;5067502;28;20465;-67
2024/02/28 10:38:13;;;;;;;2.28;0.52;;;;;;;14.26;87.30;100833.13;5067634;28;20029;-67
2024/02/28 10:40:40;;;;;;;1.35;0.70;;;;;;;14.29;90.13;100827.56;5068778;28;20133;-67
2024/02/28 10:43:08;;;;;;;4.07;0.60;;;;;;;14.35;84.07;100826.94;5070434;28;20108;-67
2024/02/28 10:45:36;;;;;;;7.55;1.10;;;;;;;14.33;85.65;100825.44;5065987;28;20086;-67
2024/02/28 10:48:03;;;;;;;5.47;0.65;;;;;;;14.26;82.95;100826.06;5068711;28;20484;-67
2024/02/28 10:50:29;;;;;;;3.95;0.88;;;;;;;14.27;86.28;100825.09;5067695;28;20029;-67
2024/02/28 10:53:02;;;;;;;2.38;0.63;;;;;;;14.20;84.34;100829.34;5070068;28;20086;-68
2024/02/28 10:55:35;;;;;;;4.70;0.68;;;;;;;14.28;85.88;100818.88;5070801;28;20116;-68
2024/02/28 10:58:07;;;;;;;3.25;0.60;;;;;;;14.25;88.36;100816.56;5067614;28;20147;-68
2024/02/28 11:00:35;;;;;;;7.43;0.73;;;;;;;14.33;84.23;100809.72;5067792;28;20119;-67
2024/02/28 11:03:03;;;;;;;5.35;0.38;;;;;;;14.46;88.96;100804.88;5070565;28;20481;-68
2024/02/28 11:05:37;;;;;;;5.38;0.98;;;;;;;14.71;91.15;100803.91;5071856;28;20115;-67
2024/02/28 11:08:03;;;;;;;4.82;0.40;;;;;;;14.99;90.81;100803.59;5064451;28;20424;-67
2024/02/28 11:10:33;;;;;;;5.30;0.45;;;;;;;15.12;91.57;100812.56;5064216;28;20040;-67
2024/02/28 11:12:58;;;;;;;7.35;0.73;;;;;;;15.15;91.00;100807.00;5066133;28;20056;-67
2024/02/28 11:15:26;;;;;;;5.07;0.60;;;;;;;15.20;91.54;100811.75;5069391;28;20106;-67